Time;durP1;ratioP1;P1;durP2;ratioP2;P2;SDS_P1;SDS_P2;PMS_P1;PMS_P2;Temp;Humidity;BMP_temperature;BMP_pressure;BME280_temperature;BME280_humidity;BME280_pressure;Samples;Min_cycle;Max_cycle;Signal;HPM_P1;HPM_P2
2022/06/24 00:02:19;;;;;;;6.38;5.72;;;29.00;59.00;30.30;99847.00;;;;5088585;28;20172;-46
2022/06/24 00:04:51;;;;;;;8.48;5.97;;;28.90;59.40;30.30;99860.00;;;;5088257;28;20185;-46
2022/06/24 00:07:17;;;;;;;9.10;5.80;;;28.80;59.50;30.20;99865.00;;;;5088327;28;20243;-47
2022/06/24 00:09:43;;;;;;;12.25;5.72;;;28.80;59.30;30.20;99876.00;;;;5088768;28;20256;-47
2022/06/24 00:12:15;;;;;;;7.05;6.10;;;28.90;59.40;30.20;99887.00;;;;5088808;28;20173;-46
2022/06/24 00:14:42;;;;;;;6.70;5.32;;;28.90;59.40;30.20;99900.00;;;;5088281;28;20244;-46
2022/06/24 00:17:09;;;;;;;7.60;5.38;;;28.90;59.30;30.20;99941.00;;;;5091258;28;20164;-47
2022/06/24 00:19:52;;;;;;;10.25;6.18;;;28.90;59.30;30.10;99953.00;;;;5091671;28;20688;-45
2022/06/24 00:22:17;;;;;;;9.63;5.97;;;28.80;60.10;30.00;99936.00;;;;5089411;28;20192;-47
2022/06/24 00:24:43;;;;;;;10.00;6.28;;;28.60;62.20;29.90;99920.00;;;;5088417;28;20236;-47
2022/06/24 00:27:25;;;;;;;12.88;6.45;;;28.20;64.40;29.70;99886.00;;;;5091988;28;20204;-46
2022/06/24 00:29:51;;;;;;;9.00;5.78;;;28.00;65.40;29.60;99903.00;;;;5114803;28;20156;-48
2022/06/24 00:32:30;;;;;;;25.10;6.93;;;27.90;66.00;29.50;99891.00;;;;5113281;28;20176;-43
2022/06/24 00:35:11;;;;;;;12.65;6.32;;;27.90;65.80;29.50;99888.00;;;;5088466;28;20246;-42
2022/06/24 00:37:38;;;;;;;10.00;6.22;;;27.90;65.20;29.40;99900.00;;;;5097708;28;20153;-44
2022/06/24 00:40:10;;;;;;;10.23;6.45;;;27.90;64.80;29.30;99922.00;;;;5083844;28;20181;-42
2022/06/24 00:42:44;;;;;;;11.68;6.50;;;27.80;65.70;29.30;99923.00;;;;5085439;28;20177;-43
2022/06/24 00:45:17;;;;;;;10.02;5.65;;;27.80;66.10;29.20;99922.00;;;;5081290;28;20227;-42
2022/06/24 00:47:43;;;;;;;9.82;5.32;;;27.50;66.30;29.20;99920.00;;;;5086121;28;20511;-43
2022/06/24 00:50:32;;;;;;;12.63;5.65;;;27.60;65.70;29.20;99926.00;;;;5087148;28;20184;-41
2022/06/24 00:53:00;;;;;;;8.75;5.20;;;27.80;67.00;29.10;99945.00;;;;5087373;28;20157;-42
2022/06/24 00:55:36;;;;;;;10.27;4.72;;;27.50;65.80;29.00;99932.00;;;;5087177;28;20220;-41
2022/06/24 00:58:02;;;;;;;7.88;4.60;;;27.30;66.20;29.00;99930.00;;;;5087229;28;20183;-41
2022/06/24 01:00:31;;;;;;;10.20;4.85;;;27.50;66.60;28.90;99925.00;;;;5087373;28;20204;-42
2022/06/24 01:03:06;;;;;;;9.75;4.55;;;27.40;65.40;28.90;99931.00;;;;5087028;28;20230;-42
2022/06/24 01:05:32;;;;;;;7.63;4.30;;;27.60;65.30;29.00;99937.00;;;;5086965;28;20203;-43
2022/06/24 01:07:59;;;;;;;10.23;4.45;;;27.80;64.70;29.00;99930.00;;;;5087101;28;20230;-42
2022/06/24 01:10:25;;;;;;;7.22;4.85;;;27.50;65.30;29.00;99936.00;;;;5087031;28;20165;-43
2022/06/24 01:12:51;;;;;;;8.82;4.10;;;27.30;65.70;29.00;99937.00;;;;5102906;28;20200;-43
2022/06/24 01:15:17;;;;;;;9.65;4.45;;;27.30;65.80;28.90;99930.00;;;;5086394;28;20229;-43
2022/06/24 01:17:42;;;;;;;6.68;4.05;;;27.00;66.80;28.80;99927.00;;;;5086976;28;20244;-43
2022/06/24 01:20:09;;;;;;;6.72;4.20;;;26.80;67.30;28.70;99924.00;;;;5087054;28;20177;-43
2022/06/24 01:22:35;;;;;;;6.93;3.88;;;26.60;67.80;28.60;99923.00;;;;5085577;28;20216;-43
2022/06/24 01:25:01;;;;;;;5.75;3.85;;;26.70;67.60;28.60;99922.00;;;;5086170;28;20224;-43
2022/06/24 01:27:26;;;;;;;5.28;3.75;;;26.80;67.10;28.60;99917.00;;;;5086924;28;20256;-44
2022/06/24 01:29:52;;;;;;;6.28;3.70;;;26.80;66.90;28.60;99915.00;;;;5086737;28;20176;-42
2022/06/24 01:32:18;;;;;;;5.55;3.42;;;27.10;66.30;28.60;99923.00;;;;5086960;28;20346;-43
2022/06/24 01:34:44;;;;;;;7.07;3.80;;;27.10;65.40;28.60;99928.00;;;;5086073;28;20572;-42
2022/06/24 01:37:09;;;;;;;7.50;3.70;;;27.10;65.20;28.70;99925.00;;;;5094587;28;20732;-42
2022/06/24 01:39:35;;;;;;;6.00;3.47;;;27.30;64.90;28.70;99934.00;;;;5101703;28;20195;-42
2022/06/24 01:42:01;;;;;;;5.40;3.65;;;27.50;64.70;28.80;99928.00;;;;5106905;28;20438;-43
2022/06/24 01:44:27;;;;;;;7.65;3.60;;;27.60;64.40;28.80;99939.00;;;;5106682;28;20271;-43
2022/06/24 01:46:53;;;;;;;7.10;3.58;;;27.70;64.20;28.80;99942.00;;;;5103047;27;20195;-43
2022/06/24 01:49:18;;;;;;;5.47;3.85;;;27.50;64.30;28.80;99947.00;;;;5082668;28;20563;-44
2022/06/24 01:51:46;;;;;;;7.55;3.65;;;27.30;64.20;28.80;99945.00;;;;5086021;28;20180;-43
2022/06/24 01:54:12;;;;;;;7.32;3.60;;;27.20;65.10;28.70;99940.00;;;;5099353;28;20258;-43
2022/06/24 01:56:38;;;;;;;8.95;3.97;;;27.00;65.40;28.70;99883.00;;;;5081183;28;20212;-42
2022/06/24 01:59:04;;;;;;;5.53;3.53;;;27.00;65.20;28.70;99948.00;;;;5084681;28;20212;-42
2022/06/24 02:01:30;;;;;;;5.95;3.90;;;26.90;65.60;28.60;99944.00;;;;5085668;28;20204;-43
2022/06/24 02:03:55;;;;;;;6.32;3.20;;;26.60;67.00;28.50;99925.00;;;;5085695;28;20181;-42
2022/06/24 02:06:21;;;;;;;5.25;3.42;;;26.80;66.70;28.50;99920.00;;;;5085817;28;20688;-43
2022/06/24 02:08:47;;;;;;;5.22;3.50;;;26.80;66.20;28.50;99920.00;;;;5085079;28;20173;-43
2022/06/24 02:14:02;;;;;;;5.13;3.33;;;27.00;65.60;28.50;99927.00;;;;5101492;28;20300;-43
2022/06/24 02:16:28;;;;;;;5.88;3.65;;;26.80;66.40;28.50;99915.00;;;;5089051;28;20697;-43
2022/06/24 02:18:54;;;;;;;6.63;3.70;;;26.90;65.50;28.50;99903.00;;;;5101576;28;20207;-42
2022/06/24 02:21:23;;;;;;;6.43;3.70;;;26.70;66.60;28.40;99894.00;;;;5073810;28;20181;-42
2022/06/24 02:23:49;;;;;;;4.97;3.40;;;26.70;66.70;28.40;99921.00;;;;5101169;28;20204;-42
2022/06/24 02:26:15;;;;;;;5.18;3.58;;;26.60;66.60;28.30;99927.00;;;;5101607;28;20202;-43
2022/06/24 02:28:40;;;;;;;4.60;3.38;;;26.40;67.80;28.20;99925.00;;;;5085727;28;20181;-43
2022/06/24 02:31:06;;;;;;;5.18;3.70;;;26.40;68.60;28.10;99924.00;;;;5085781;28;20646;-43
2022/06/24 02:33:32;;;;;;;5.32;3.47;;;25.90;69.50;28.00;99939.00;;;;5085651;28;20200;-43
2022/06/24 02:35:58;;;;;;;5.20;3.92;;;25.90;69.80;27.90;99938.00;;;;5089869;28;20193;-44
2022/06/24 02:38:24;;;;;;;5.43;3.67;;;25.70;70.90;27.70;99926.00;;;;5092122;28;20195;-43
2022/06/24 02:40:50;;;;;;;7.72;3.60;;;25.30;71.90;27.60;99919.00;;;;5088675;28;20165;-43
2022/06/24 02:43:24;;;;;;;6.78;3.40;;;25.50;71.00;27.50;99904.00;;;;5087860;28;20169;-42
2022/06/24 02:45:59;;;;;;;4.38;3.00;;;25.40;71.50;27.40;99893.00;;;;5085805;28;20602;-42
2022/06/24 02:48:25;;;;;;;4.32;3.20;;;25.50;70.80;27.40;99875.00;;;;5100930;28;20238;-43
2022/06/24 02:50:53;;;;;;;4.93;3.40;;;25.50;70.30;27.40;99869.00;;;;5083594;28;20291;-42
2022/06/24 02:53:20;;;;;;;5.75;3.30;;;25.50;70.90;27.30;99874.00;;;;5080793;28;20177;-43
2022/06/24 02:55:47;;;;;;;4.97;3.20;;;25.40;70.60;27.30;99870.00;;;;5085497;28;20249;-43
2022/06/24 02:58:13;;;;;;;3.88;2.90;;;25.60;69.80;27.30;99875.00;;;;5065409;28;20178;-42
2022/06/24 03:00:41;;;;;;;3.97;3.00;;;25.70;69.60;27.40;99890.00;;;;5066214;28;20731;-43
2022/06/24 03:03:07;;;;;;;5.10;3.20;;;26.10;67.60;27.50;99894.00;;;;5080068;28;20184;-42
2022/06/24 03:05:33;;;;;;;2.90;2.55;;;26.10;67.30;27.60;99901.00;;;;5089633;28;20196;-42
2022/06/24 03:07:59;;;;;;;6.20;3.00;;;26.20;66.50;27.60;99903.00;;;;5089912;28;20177;-43
2022/06/24 03:10:25;;;;;;;3.65;2.75;;;26.30;66.30;27.60;99896.00;;;;5086623;28;20254;-42
2022/06/24 03:12:50;;;;;;;3.58;2.92;;;26.20;67.00;27.70;99885.00;;;;5089531;28;20184;-42
2022/06/24 03:15:16;;;;;;;2.97;2.60;;;26.50;66.00;27.80;99897.00;;;;5089427;28;20197;-42
2022/06/24 03:17:42;;;;;;;3.08;2.63;;;26.60;65.10;27.90;99908.00;;;;5089035;28;20173;-43
2022/06/24 03:20:08;;;;;;;3.35;2.75;;;26.70;64.20;27.90;99892.00;;;;5089450;28;20180;-44
2022/06/24 03:22:34;;;;;;;3.88;2.78;;;26.70;64.50;28.00;99892.00;;;;5089217;28;20444;-42
2022/06/24 03:25:00;;;;;;;7.10;3.10;;;26.90;64.20;28.00;99884.00;;;;5089331;28;20255;-42
2022/06/24 03:27:26;;;;;;;3.38;2.45;;;27.00;63.90;28.10;99891.00;;;;5090836;28;20250;-42
2022/06/24 03:29:52;;;;;;;6.25;2.60;;;27.10;63.50;28.20;99895.00;;;;5089393;28;20610;-44
2022/06/24 03:32:17;;;;;;;5.43;2.92;;;27.20;62.90;28.00;99886.00;;;;5089702;28;20323;-44
2022/06/24 03:34:43;;;;;;;8.20;2.70;;;27.30;62.90;28.20;99878.00;;;;5089513;28;20235;-44
2022/06/24 03:37:09;;;;;;;6.35;3.50;;;27.30;62.70;28.10;99885.00;;;;5089281;28;20173;-42
2022/06/24 03:39:35;;;;;;;4.30;2.92;;;27.30;62.90;28.30;99880.00;;;;5088602;28;20541;-43
2022/06/24 03:42:01;;;;;;;3.33;2.90;;;27.30;63.70;28.30;99878.00;;;;5087678;28;20251;-43
2022/06/24 03:44:27;;;;;;;4.60;2.60;;;27.20;62.90;28.30;99883.00;;;;5092339;28;20207;-43
2022/06/24 03:46:53;;;;;;;3.53;2.88;;;27.10;63.00;28.40;99885.00;;;;5091723;28;20161;-43
2022/06/24 03:49:19;;;;;;;5.88;3.05;;;27.10;62.80;28.40;99894.00;;;;5091015;28;20686;-43
2022/06/24 03:51:45;;;;;;;4.13;2.78;;;27.00;62.80;28.30;99892.00;;;;5088925;28;20202;-44
2022/06/24 03:54:11;;;;;;;4.25;2.80;;;26.90;63.10;28.30;99888.00;;;;5104668;28;20212;-43
2022/06/24 03:56:37;;;;;;;4.93;2.72;;;27.10;63.30;28.30;99879.00;;;;5088767;28;20300;-43
2022/06/24 03:59:03;;;;;;;3.05;2.75;;;27.10;62.90;28.30;99885.00;;;;5088365;28;20764;-43
2022/06/24 04:01:29;;;;;;;3.97;2.78;;;27.00;63.10;28.30;99886.00;;;;5086482;28;20181;-43
2022/06/24 04:03:54;;;;;;;4.28;2.70;;;27.10;62.80;28.30;99887.00;;;;5088599;28;20185;-43
2022/06/24 04:06:20;;;;;;;2.85;2.47;;;27.20;62.60;28.30;99878.00;;;;5094476;28;20188;-44
2022/06/24 04:08:46;;;;;;;4.25;3.10;;;27.30;62.00;28.30;99881.00;;;;5111520;28;20168;-43
2022/06/24 04:11:13;;;;;;;3.65;2.60;;;27.40;62.10;28.30;99886.00;;;;5099365;28;20840;-42
2022/06/24 04:13:39;;;;;;;3.30;3.00;;;27.40;61.80;28.30;99888.00;;;;5085549;28;20188;-44
2022/06/24 04:16:05;;;;;;;4.50;3.00;;;27.30;62.00;28.20;99876.00;;;;5086752;28;20216;-44
2022/06/24 04:18:31;;;;;;;2.80;2.60;;;27.30;61.60;28.40;99864.00;;;;5082941;28;20173;-43
2022/06/24 04:20:57;;;;;;;2.88;2.50;;;27.30;62.00;28.40;99863.00;;;;5087684;28;20254;-44
2022/06/24 04:23:23;;;;;;;3.20;2.80;;;27.40;62.10;28.40;99861.00;;;;5087966;28;20727;-44
2022/06/24 04:25:49;;;;;;;4.32;2.75;;;27.40;62.10;28.40;99856.00;;;;5078462;28;20274;-42
2022/06/24 04:28:15;;;;;;;3.60;2.70;;;27.30;62.40;28.40;99851.00;;;;5079361;28;20368;-42
2022/06/24 04:30:40;;;;;;;5.82;3.00;;;27.30;62.50;28.40;99853.00;;;;5088076;28;20180;-43
2022/06/24 04:33:06;;;;;;;3.15;2.75;;;27.30;62.60;28.40;99855.00;;;;5088177;28;20200;-43
2022/06/24 04:35:32;;;;;;;4.40;2.80;;;27.20;63.50;28.40;99849.00;;;;5101933;28;20201;-43
2022/06/24 04:37:58;;;;;;;4.95;3.05;;;27.20;62.80;28.40;99841.00;;;;5106004;28;20177;-44
2022/06/24 04:40:23;;;;;;;6.22;3.22;;;27.10;62.70;28.40;99854.00;;;;5087761;28;20242;-44
2022/06/24 04:42:49;;;;;;;6.07;3.28;;;27.00;62.70;28.30;99850.00;;;;5087661;28;20187;-42
2022/06/24 04:45:15;;;;;;;6.72;3.50;;;27.00;63.10;28.30;99861.00;;;;5084317;28;20240;-44
2022/06/24 04:47:41;;;;;;;6.35;3.30;;;27.00;63.10;28.30;99868.00;;;;5083602;28;20185;-42
2022/06/24 04:50:07;;;;;;;5.82;3.15;;;26.80;63.60;28.30;99862.00;;;;5086912;28;20180;-43
2022/06/24 04:52:33;;;;;;;4.78;3.13;;;26.80;63.60;28.20;99873.00;;;;5103624;28;20169;-42
2022/06/24 04:55:00;;;;;;;6.22;3.50;;;26.70;64.00;28.20;99871.00;;;;5087766;28;20200;-43
2022/06/24 04:57:25;;;;;;;5.28;3.33;;;26.80;64.20;28.20;99867.00;;;;5087045;28;20575;-44
2022/06/24 04:59:51;;;;;;;5.28;3.38;;;26.80;63.90;28.20;99868.00;;;;5087689;28;20187;-43
2022/06/24 05:02:17;;;;;;;5.35;3.42;;;26.80;63.80;28.20;99872.00;;;;5087277;28;20176;-43
2022/06/24 05:04:43;;;;;;;4.45;3.30;;;26.80;64.00;28.10;99873.00;;;;5103183;28;20200;-43
2022/06/24 05:07:08;;;;;;;5.68;3.47;;;26.70;64.20;28.10;99881.00;;;;5086781;28;20206;-42
2022/06/24 05:09:34;;;;;;;4.40;3.20;;;26.50;65.60;28.10;99878.00;;;;5088072;28;20236;-42
2022/06/24 05:12:00;;;;;;;5.05;3.10;;;26.60;64.80;28.10;99883.00;;;;5088084;28;20193;-42
2022/06/24 05:14:26;;;;;;;5.15;3.70;;;26.70;64.10;28.10;99888.00;;;;5087028;28;20219;-41
2022/06/24 05:16:52;;;;;;;5.05;3.25;;;26.70;64.80;28.00;99883.00;;;;5087227;28;20203;-43
2022/06/24 05:19:18;;;;;;;4.30;3.13;;;26.60;65.10;28.00;99889.00;;;;5086869;28;20279;-42
2022/06/24 05:21:44;;;;;;;3.40;3.10;;;26.70;64.70;28.00;99886.00;;;;5087007;28;20221;-42
2022/06/24 05:24:09;;;;;;;4.93;2.95;;;26.80;64.40;28.00;99884.00;;;;5087178;28;20262;-43
2022/06/24 05:26:35;;;;;;;4.35;3.30;;;26.70;64.60;28.00;99891.00;;;;5086698;28;20177;-44
2022/06/24 05:29:01;;;;;;;5.45;3.20;;;26.70;64.50;28.00;99896.00;;;;5086207;28;20552;-44
2022/06/24 05:31:27;;;;;;;3.92;3.33;;;26.60;64.50;28.00;99895.00;;;;5087020;28;20173;-42
2022/06/24 05:33:52;;;;;;;4.50;2.97;;;26.40;65.80;27.90;99886.00;;;;5086919;28;20193;-43
2022/06/24 05:36:18;;;;;;;5.00;3.05;;;26.30;65.40;27.90;99890.00;;;;5086917;28;20199;-44
2022/06/24 05:38:46;;;;;;;5.22;2.90;;;26.40;65.60;27.80;99888.00;;;;5086711;28;20165;-43
2022/06/24 05:41:12;;;;;;;4.55;3.15;;;26.30;66.00;27.80;99885.00;;;;5088211;28;20176;-43
2022/06/24 05:43:38;;;;;;;7.07;3.03;;;26.30;65.70;27.60;99894.00;;;;5089118;28;20856;-43
2022/06/24 05:46:04;;;;;;;5.15;3.00;;;25.80;67.30;27.50;99889.00;;;;5087604;28;20256;-42
2022/06/24 05:48:30;;;;;;;5.05;2.83;;;25.80;67.20;27.50;99889.00;;;;5085718;28;20161;-42
2022/06/24 05:50:56;;;;;;;4.28;2.80;;;25.60;67.30;27.40;99894.00;;;;5086870;28;20173;-43
2022/06/24 05:56:06;;;;;;;4.50;2.88;;;25.70;67.30;27.30;99891.00;;;;5099749;28;20223;-42
2022/06/24 05:58:32;;;;;;;3.53;2.58;;;25.80;66.40;27.30;99890.00;;;;5086014;28;20797;-44
2022/06/24 06:00:58;;;;;;;5.82;2.95;;;25.90;65.80;27.30;99870.00;;;;5086611;28;20176;-42
2022/06/24 06:03:25;;;;;;;4.22;2.42;;;25.80;66.00;27.40;99869.00;;;;5091934;28;20187;-42
2022/06/24 06:05:51;;;;;;;3.85;2.70;;;26.10;65.10;27.40;99863.00;;;;5092646;28;20169;-42
2022/06/24 06:08:17;;;;;;;3.15;2.50;;;26.10;64.50;27.40;99858.00;;;;5088765;28;20184;-44
2022/06/24 06:10:43;;;;;;;5.50;2.80;;;26.30;64.80;27.40;99848.00;;;;5088893;28;20192;-43
2022/06/24 06:13:13;;;;;;;4.72;2.50;;;26.40;63.90;27.40;99851.00;;;;5087556;28;20176;-43
2022/06/24 06:15:40;;;;;;;5.60;2.80;;;26.40;63.90;27.50;99851.00;;;;5085806;28;20192;-43
2022/06/24 06:18:06;;;;;;;3.28;2.30;;;26.30;64.00;27.50;99846.00;;;;5085274;28;20165;-43
2022/06/24 06:20:32;;;;;;;4.40;2.90;;;26.50;63.40;27.50;99847.00;;;;5085266;28;20165;-43
2022/06/24 06:22:57;;;;;;;5.85;2.90;;;26.50;63.10;27.50;99841.00;;;;5086176;28;20179;-42
2022/06/24 06:25:24;;;;;;;4.70;2.80;;;26.50;63.40;27.50;99844.00;;;;5086270;28;20185;-44
2022/06/24 06:27:50;;;;;;;6.10;2.67;;;26.30;64.00;27.50;99846.00;;;;5087495;28;20164;-43
2022/06/24 06:30:16;;;;;;;5.15;2.47;;;26.10;63.90;27.50;99844.00;;;;5085509;28;20744;-43
2022/06/24 06:32:42;;;;;;;3.72;2.42;;;26.20;63.70;27.50;99844.00;;;;5086417;28;20181;-43
2022/06/24 06:35:08;;;;;;;4.65;2.45;;;26.30;63.80;27.50;99840.00;;;;5085890;28;20223;-43
2022/06/24 06:37:34;;;;;;;4.55;2.80;;;26.20;63.60;27.50;99841.00;;;;5101082;28;20544;-43
2022/06/24 06:40:00;;;;;;;4.60;2.70;;;26.30;63.20;27.50;99848.00;;;;5091124;28;20169;-42
2022/06/24 06:42:26;;;;;;;4.90;2.50;;;26.20;64.10;27.50;99851.00;;;;5092427;28;20160;-43
2022/06/24 06:44:51;;;;;;;3.25;2.30;;;26.20;63.70;27.50;99829.00;;;;5092214;28;20191;-43
2022/06/24 06:47:17;;;;;;;3.85;2.40;;;26.20;63.80;27.50;99847.00;;;;5092199;28;20172;-43
2022/06/24 06:49:44;;;;;;;4.15;2.63;;;26.20;63.70;27.50;99847.00;;;;5092052;28;20207;-42
2022/06/24 06:52:09;;;;;;;4.07;2.50;;;26.20;63.70;27.50;99843.00;;;;5092458;28;20172;-44
2022/06/24 06:54:35;;;;;;;3.22;2.33;;;26.30;63.70;27.40;99849.00;;;;5092205;28;20195;-43
2022/06/24 06:57:01;;;;;;;3.03;2.33;;;26.10;64.10;27.40;99850.00;;;;5091965;28;20168;-43
2022/06/24 06:59:27;;;;;;;4.95;2.60;;;26.10;64.00;27.40;99843.00;;;;5091981;28;20172;-42
2022/06/24 07:01:52;;;;;;;4.32;2.42;;;26.00;64.60;27.40;99847.00;;;;5108001;28;20653;-42
2022/06/24 07:04:18;;;;;;;4.65;2.90;;;25.90;64.00;27.30;99857.00;;;;5092334;28;20196;-43
2022/06/24 07:06:44;;;;;;;4.57;2.40;;;25.70;65.50;27.30;99859.00;;;;5092318;28;20169;-47
2022/06/24 07:09:10;;;;;;;6.97;2.75;;;25.80;65.10;27.20;99857.00;;;;5091459;28;20789;-42
2022/06/24 07:11:36;;;;;;;4.38;2.53;;;25.60;66.00;27.20;99844.00;;;;5092013;28;20173;-44
2022/06/24 07:14:02;;;;;;;3.75;2.40;;;25.80;65.50;27.20;99864.00;;;;5092278;28;20251;-44
2022/06/24 07:16:27;;;;;;;4.88;2.65;;;25.70;65.10;27.10;99854.00;;;;5092291;28;20193;-43
2022/06/24 07:18:53;;;;;;;4.72;2.40;;;25.60;66.00;27.10;99844.00;;;;5090754;28;20496;-43
2022/06/24 07:21:19;;;;;;;4.35;2.63;;;25.50;66.30;27.00;99843.00;;;;5092325;28;20164;-43
2022/06/24 07:23:45;;;;;;;3.65;2.47;;;25.60;65.80;27.00;99848.00;;;;5091946;28;20200;-44
2022/06/24 07:26:10;;;;;;;2.88;2.50;;;25.80;65.20;27.10;99846.00;;;;5092049;28;20172;-43
2022/06/24 07:28:37;;;;;;;5.47;2.72;;;26.00;64.60;27.10;99845.00;;;;5091667;28;20637;-42
2022/06/24 07:31:16;;;;;;;3.75;2.58;;;26.10;64.30;27.20;99852.00;;;;5092515;28;20161;-43
2022/06/24 07:33:42;;;;;;;5.55;2.65;;;26.00;64.60;27.10;99855.00;;;;5091727;28;20248;-42
2022/06/24 07:36:08;;;;;;;3.58;2.33;;;25.70;66.20;27.10;99843.00;;;;5092091;28;20654;-43
2022/06/24 07:38:34;;;;;;;5.53;2.88;;;25.70;65.80;27.10;99850.00;;;;5091558;28;20168;-44
2022/06/24 07:40:59;;;;;;;6.25;2.45;;;25.50;66.30;27.00;99846.00;;;;5092313;28;20189;-43
2022/06/24 07:43:25;;;;;;;4.50;2.30;;;25.50;66.00;27.00;99847.00;;;;5092342;28;20192;-43
2022/06/24 07:45:53;;;;;;;7.03;2.50;;;25.70;65.40;27.00;99841.00;;;;5098254;28;20325;-44
2022/06/24 07:48:18;;;;;;;5.93;2.80;;;25.80;65.50;27.00;99840.00;;;;5115209;28;20224;-43
2022/06/24 07:50:44;;;;;;;4.97;2.58;;;25.60;65.80;27.00;99842.00;;;;4970982;28;20220;-43
2022/06/24 07:53:10;;;;;;;4.53;2.70;;;25.50;67.00;27.00;99848.00;;;;5092046;28;20605;-42
2022/06/24 07:58:20;;;;;;;3.63;2.17;;;25.60;66.10;27.00;99833.00;;;;5068438;28;20161;-43
2022/06/24 08:00:46;;;;;;;6.57;3.00;;;25.90;65.00;26.90;99862.00;;;;5068265;28;20162;-43
2022/06/24 08:03:12;;;;;;;2.83;2.30;;;25.00;69.20;26.60;99853.00;;;;5068380;28;20177;-43
2022/06/24 08:05:37;;;;;;;3.35;2.30;;;24.40;70.50;26.30;99858.00;;;;5068248;28;20197;-43
2022/06/24 08:08:03;;;;;;;3.83;2.40;;;23.70;74.20;25.90;99864.00;;;;5068986;28;20250;-43
2022/06/24 08:10:29;;;;;;;3.63;2.50;;;23.20;76.60;25.70;99857.00;;;;5088417;28;20172;-42
2022/06/24 08:12:55;;;;;;;3.23;2.53;;;22.90;77.00;25.40;99860.00;;;;5103984;28;20184;-42
2022/06/24 08:15:21;;;;;;;3.97;2.97;;;22.50;78.60;25.00;99873.00;;;;5087968;28;20208;-42
2022/06/24 08:17:48;;;;;;;4.07;2.60;;;21.90;81.30;24.70;99884.00;;;;5087956;28;20318;-42
2022/06/24 08:20:14;;;;;;;4.43;2.50;;;21.80;81.30;24.40;99885.00;;;;5087801;28;20188;-42
2022/06/24 08:22:39;;;;;;;5.23;2.90;;;22.00;82.00;24.40;99893.00;;;;5087937;28;20653;-43
2022/06/24 08:25:06;;;;;;;2.90;2.60;;;22.30;80.00;24.50;99898.00;;;;5087814;28;20200;-42
2022/06/24 08:27:31;;;;;;;3.07;2.23;;;22.90;77.20;24.60;99901.00;;;;5088731;28;20188;-42
2022/06/24 08:29:57;;;;;;;2.50;2.30;;;23.40;75.10;24.80;99908.00;;;;5088028;28;20169;-42
2022/06/24 08:32:23;;;;;;;3.00;2.10;;;23.40;74.00;24.90;99901.00;;;;5088427;28;20323;-43
2022/06/24 08:34:49;;;;;;;2.50;2.20;;;23.80;73.20;25.10;99902.00;;;;5087585;28;20200;-43
2022/06/24 08:37:14;;;;;;;3.33;2.30;;;24.20;71.10;25.20;99908.00;;;;5103412;28;20176;-43
2022/06/24 08:39:40;;;;;;;2.50;2.10;;;24.40;70.90;25.40;99896.00;;;;5084808;28;20174;-43
2022/06/24 08:42:06;;;;;;;3.60;2.50;;;24.60;70.00;25.60;99895.00;;;;5088665;28;20256;-42
2022/06/24 08:44:34;;;;;;;11.80;2.80;;;24.80;69.10;25.70;99894.00;;;;5072272;28;20201;-43
2022/06/24 08:47:00;;;;;;;8.93;2.57;;;25.10;68.30;25.80;99903.00;;;;5106283;28;20430;-42
2022/06/24 08:49:26;;;;;;;10.50;2.90;;;25.20;67.60;25.70;99869.00;;;;5090425;28;20256;-42
2022/06/24 08:51:51;;;;;;;4.10;2.53;;;25.30;68.20;26.00;99907.00;;;;4890143;28;20177;-43
2022/06/24 08:54:18;;;;;;;5.88;2.40;;;25.30;67.70;26.10;99913.00;;;;5090695;28;20196;-42
2022/06/24 08:56:44;;;;;;;3.67;2.45;;;25.40;67.80;26.20;99920.00;;;;5090047;28;20657;-42
2022/06/24 08:59:10;;;;;;;5.00;2.15;;;25.40;67.60;26.30;99915.00;;;;5090524;28;20574;-42
2022/06/24 09:01:42;;;;;;;3.97;2.40;;;25.50;67.00;26.40;99914.00;;;;5090048;28;20183;-41
2022/06/24 09:04:09;;;;;;;5.70;2.78;;;25.50;66.70;26.40;99925.00;;;;5090074;28;20192;-43
2022/06/24 09:06:38;;;;;;;3.53;2.40;;;25.50;67.20;26.50;99918.00;;;;5088242;28;20173;-42
2022/06/24 09:09:04;;;;;;;4.45;2.28;;;25.60;66.20;26.50;99921.00;;;;5088504;28;20164;-42
2022/06/24 09:11:38;;;;;;;3.72;2.25;;;25.70;65.80;26.60;99924.00;;;;5089140;28;20169;-43
2022/06/24 09:14:04;;;;;;;6.30;2.40;;;25.70;66.60;26.60;99921.00;;;;5089982;28;20210;-42
2022/06/24 09:16:29;;;;;;;6.22;2.40;;;25.60;66.60;26.60;99929.00;;;;5089495;28;20673;-43
2022/06/24 09:19:00;;;;;;;5.00;2.50;;;25.70;66.10;26.70;99931.00;;;;5089855;28;20169;-43
2022/06/24 09:21:28;;;;;;;2.75;2.30;;;25.70;66.50;26.70;99927.00;;;;5089670;28;20206;-43
2022/06/24 09:24:03;;;;;;;2.92;2.30;;;25.70;66.20;26.70;99914.00;;;;5089712;28;20204;-43
2022/06/24 09:26:38;;;;;;;3.67;2.10;;;25.80;65.30;26.70;99915.00;;;;5088907;28;20169;-44
2022/06/24 09:29:12;;;;;;;3.97;2.20;;;25.90;65.80;26.80;99910.00;;;;5089833;28;20160;-42
2022/06/24 09:31:39;;;;;;;2.83;2.13;;;25.90;64.50;26.80;99905.00;;;;5089501;28;20203;-43
2022/06/24 09:34:12;;;;;;;2.67;2.28;;;25.90;64.50;26.80;99904.00;;;;5089424;28;20322;-43
2022/06/24 09:36:40;;;;;;;2.67;2.47;;;26.00;65.40;26.80;99895.00;;;;5089101;28;20185;-43
2022/06/24 09:39:08;;;;;;;4.47;2.33;;;26.00;66.20;26.80;99892.00;;;;5089200;28;20763;-43
2022/06/24 09:41:51;;;;;;;2.78;2.22;;;26.00;64.60;26.80;99891.00;;;;5089215;28;20318;-43
2022/06/24 09:44:17;;;;;;;2.75;2.35;;;25.90;64.90;26.80;99888.00;;;;5089304;28;20208;-43
2022/06/24 09:46:44;;;;;;;2.80;2.40;;;26.00;64.20;26.80;99893.00;;;;5089204;28;20211;-43
2022/06/24 09:49:17;;;;;;;3.10;2.80;;;26.00;65.30;26.80;99895.00;;;;5087853;28;20214;-43
2022/06/24 09:51:46;;;;;;;3.53;2.97;;;26.00;66.40;26.80;99909.00;;;;5032932;28;20723;-41
2022/06/24 09:54:12;;;;;;;3.28;2.67;;;25.60;68.00;26.80;99909.00;;;;5110024;28;20211;-42
2022/06/24 09:56:38;;;;;;;3.97;2.53;;;25.70;67.10;26.80;99901.00;;;;5109419;28;20325;-44
2022/06/24 10:01:49;;;;;;;3.45;2.70;;;25.80;64.70;26.80;99900.00;;;;5068797;28;20219;-42
2022/06/24 10:04:18;;;;;;;4.93;2.78;;;25.80;65.50;26.80;99891.00;;;;5068969;28;20239;-43
2022/06/24 10:06:46;;;;;;;4.38;3.00;;;25.90;64.90;26.80;99910.00;;;;5068580;28;20551;-43
2022/06/24 10:09:12;;;;;;;3.58;2.72;;;26.00;65.60;26.80;99906.00;;;;5068388;28;20776;-42
2022/06/24 10:11:41;;;;;;;3.22;2.53;;;26.00;65.50;26.80;99894.00;;;;5068396;28;20166;-43
2022/06/24 10:14:08;;;;;;;2.88;2.67;;;26.00;64.20;26.80;99892.00;;;;5068037;28;20276;-43
2022/06/24 10:16:34;;;;;;;3.30;3.00;;;26.00;65.20;26.80;99899.00;;;;5068593;28;20240;-43
2022/06/24 10:19:00;;;;;;;4.13;3.15;;;25.80;67.10;26.80;99893.00;;;;5083184;28;20177;-43
2022/06/24 10:21:26;;;;;;;4.10;3.28;;;25.80;67.10;26.80;99896.00;;;;5087205;28;20255;-43
2022/06/24 10:23:52;;;;;;;5.32;3.15;;;25.90;67.30;26.80;99897.00;;;;5087774;28;20204;-42
2022/06/24 10:26:29;;;;;;;2.60;2.40;;;25.90;66.60;26.80;99900.00;;;;5089058;28;20218;-44
2022/06/24 10:29:03;;;;;;;4.03;3.33;;;25.90;64.70;26.80;99911.00;;;;5089521;28;20188;-44
2022/06/24 10:31:48;;;;;;;3.97;3.30;;;25.90;66.90;26.80;99905.00;;;;5089610;28;20562;-42
2022/06/24 10:34:25;;;;;;;4.43;2.70;;;25.90;66.80;26.80;99908.00;;;;5089649;28;20207;-43
2022/06/24 10:37:12;;;;;;;3.22;2.83;;;26.00;64.60;26.80;99911.00;;;;5068472;28;20193;-43
2022/06/24 10:40:08;;;;;;;2.90;2.70;;;25.90;64.30;26.80;99913.00;;;;5068515;28;20150;-43
2022/06/24 10:42:34;;;;;;;4.00;3.60;;;26.00;64.60;26.80;99921.00;;;;5050372;28;20272;-43
2022/06/24 10:45:04;;;;;;;4.30;3.60;;;25.40;68.40;26.70;99921.00;;;;5072646;28;20279;-42
2022/06/24 10:47:40;;;;;;;3.58;2.97;;;25.70;66.30;26.70;99924.00;;;;5088412;28;20157;-42
2022/06/24 10:50:14;;;;;;;4.05;3.65;;;25.80;66.60;26.80;99920.00;;;;5023246;28;20171;-42
2022/06/24 10:52:47;;;;;;;5.45;4.47;;;25.80;66.10;26.80;99925.00;;;;5108823;28;20239;-43
2022/06/24 10:55:28;;;;;;;3.92;3.60;;;25.60;66.80;26.70;99929.00;;;;5108920;28;20196;-42
2022/06/24 10:58:08;;;;;;;5.00;4.50;;;25.50;66.40;26.70;99925.00;;;;5108620;28;20183;-42
2022/06/24 11:00:48;;;;;;;4.15;3.75;;;25.50;66.30;26.60;99908.00;;;;5109071;28;20156;-43
2022/06/24 11:03:19;;;;;;;3.75;3.30;;;25.60;65.40;26.60;99917.00;;;;5109006;28;20145;-43
2022/06/24 11:05:46;;;;;;;4.90;4.40;;;25.80;64.70;26.60;99907.00;;;;5123903;28;20223;-43
2022/06/24 11:08:16;;;;;;;4.53;3.55;;;25.80;65.90;26.70;99906.00;;;;5108357;28;20188;-41